createdAt,value
2019-03-17T00:01:27.836Z,4.76
2019-03-17T00:03:58.925Z,4.78
2019-03-17T00:06:29.909Z,4.80
2019-03-17T00:09:00.903Z,4.65
2019-03-17T00:11:32.191Z,4.62
2019-03-17T00:14:03.198Z,4.58
2019-03-17T00:16:34.240Z,4.54
2019-03-17T00:19:05.283Z,4.48
2019-03-17T00:21:36.191Z,4.45
2019-03-17T00:24:07.245Z,4.41
2019-03-17T00:26:38.157Z,4.42
2019-03-17T00:29:09.200Z,4.33
2019-03-17T00:31:40.215Z,4.31
2019-03-17T00:34:11.798Z,4.28
2019-03-17T00:36:42.813Z,4.35
2019-03-17T00:39:13.807Z,4.34
2019-03-17T00:41:44.721Z,4.37
2019-03-17T00:44:15.641Z,4.25
2019-03-17T00:46:46.671Z,4.25
2019-03-17T00:49:17.985Z,4.34
2019-03-17T00:51:48.964Z,4.28
2019-03-17T00:54:19.952Z,4.25
2019-03-17T00:56:50.942Z,4.29
2019-03-17T00:59:21.953Z,4.26
2019-03-17T01:01:53.090Z,4.20
2019-03-17T01:04:23.959Z,4.22
2019-03-17T01:06:55.004Z,4.15
2019-03-17T01:09:26.000Z,4.12
2019-03-17T01:11:56.934Z,4.15
2019-03-17T01:14:27.879Z,4.07
2019-03-17T01:16:58.850Z,4.14
2019-03-17T01:19:29.855Z,4.19
2019-03-17T01:22:00.946Z,4.20
2019-03-17T01:24:32.014Z,4.11
2019-03-17T01:27:03.030Z,4.20
2019-03-17T01:29:34.022Z,4.14
2019-03-17T01:32:05.009Z,4.19
2019-03-17T01:34:35.894Z,4.20
2019-03-17T01:37:06.993Z,4.15
2019-03-17T01:39:37.955Z,3.97
2019-03-17T01:42:08.986Z,3.99
2019-03-17T01:44:40.138Z,4.04
2019-03-17T01:47:11.306Z,4.08
2019-03-17T01:49:42.749Z,4.01
2019-03-17T01:52:13.774Z,4.00
2019-03-17T01:54:44.858Z,4.04
2019-03-17T01:57:15.835Z,4.01
2019-03-17T01:59:46.840Z,4.07
2019-03-17T02:02:19.018Z,4.01
2019-03-17T02:04:49.939Z,4.07
2019-03-17T02:07:20.862Z,4.07
2019-03-17T02:09:51.749Z,4.01
2019-03-17T02:12:22.807Z,4.08
2019-03-17T02:14:54.780Z,4.13
2019-03-17T02:17:25.874Z,4.10
2019-03-17T02:19:56.807Z,4.02
2019-03-17T02:22:27.746Z,4.12
2019-03-17T02:24:58.817Z,4.09
2019-03-17T02:27:29.700Z,4.19
2019-03-17T02:30:00.677Z,4.07
2019-03-17T02:32:31.613Z,4.06
2019-03-17T02:35:02.554Z,4.12
2019-03-17T02:37:33.585Z,4.05
2019-03-17T02:40:06.056Z,4.07
2019-03-17T02:42:37.049Z,4.00
2019-03-17T02:45:09.895Z,3.92
2019-03-17T02:47:40.825Z,4.08
2019-03-17T02:50:11.856Z,4.04
2019-03-17T02:52:42.912Z,3.98
2019-03-17T02:55:13.842Z,3.97
2019-03-17T02:57:44.788Z,3.98
2019-03-17T03:00:18.460Z,4.06
2019-03-17T03:02:48.398Z,4.09
2019-03-17T03:05:19.286Z,3.90
2019-03-17T03:07:50.296Z,3.94
2019-03-17T03:10:21.172Z,3.92
2019-03-17T03:12:52.168Z,3.94
2019-03-17T03:15:23.046Z,3.96
2019-03-17T03:17:54.039Z,3.92
2019-03-17T03:20:25.080Z,3.97
2019-03-17T03:22:56.022Z,3.99
2019-03-17T03:25:26.958Z,4.00
2019-03-17T03:27:57.847Z,3.96
2019-03-17T03:30:28.739Z,3.99
2019-03-17T03:32:59.797Z,4.09
2019-03-17T03:35:30.766Z,4.05
2019-03-17T03:38:01.653Z,4.09
2019-03-17T03:40:33.872Z,4.09
2019-03-17T03:43:05.453Z,4.13
2019-03-17T03:45:36.337Z,4.18
2019-03-17T03:48:07.561Z,4.20
2019-03-17T03:50:38.761Z,4.20
2019-03-17T03:53:09.669Z,4.18
2019-03-17T03:55:42.353Z,4.27
2019-03-17T03:58:13.467Z,4.12
2019-03-17T04:00:44.483Z,4.21
2019-03-17T04:03:15.428Z,4.22
2019-03-17T04:05:46.338Z,4.21
2019-03-17T04:08:17.337Z,4.33
2019-03-17T04:10:48.315Z,4.23
2019-03-17T04:13:19.387Z,4.16
2019-03-17T04:15:50.474Z,4.37
2019-03-17T04:18:21.770Z,4.25
2019-03-17T04:20:52.715Z,4.15
2019-03-17T04:23:23.647Z,4.28
2019-03-17T04:25:54.677Z,4.23
2019-03-17T04:28:25.790Z,4.17
2019-03-17T04:30:56.753Z,4.20
2019-03-17T04:33:27.759Z,4.19
2019-03-17T04:35:58.757Z,4.15
2019-03-17T04:38:29.704Z,4.24
2019-03-17T04:41:00.706Z,4.33
2019-03-17T04:43:31.715Z,4.20
2019-03-17T04:46:02.686Z,4.31
2019-03-17T04:48:33.794Z,4.50
2019-03-17T04:51:04.880Z,4.64
2019-03-17T04:53:35.939Z,4.65
2019-03-17T04:56:06.921Z,4.63
2019-03-17T04:58:37.963Z,4.43
2019-03-17T05:01:08.909Z,4.56
2019-03-17T05:03:39.834Z,4.60
2019-03-17T05:06:10.722Z,4.65
2019-03-17T05:08:41.789Z,4.82
2019-03-17T05:11:12.825Z,4.73
2019-03-17T05:13:44.294Z,4.94
2019-03-17T05:16:15.345Z,5.00
2019-03-17T05:18:46.552Z,5.05
2019-03-17T05:21:17.541Z,5.31
2019-03-17T05:23:48.519Z,4.99
2019-03-17T05:26:19.437Z,5.06
2019-03-17T05:28:50.416Z,4.92
2019-03-17T05:31:21.403Z,4.87
2019-03-17T05:33:52.504Z,4.87
2019-03-17T05:36:23.477Z,4.96
2019-03-17T05:38:54.630Z,5.12
2019-03-17T05:41:25.607Z,5.49
2019-03-17T05:43:56.656Z,5.60
2019-03-17T05:46:27.633Z,5.15
2019-03-17T05:48:58.656Z,5.14
2019-03-17T05:51:30.014Z,5.13
2019-03-17T05:54:00.988Z,5.14
2019-03-17T05:56:32.020Z,5.34
2019-03-17T05:59:05.458Z,5.06
2019-03-17T06:01:36.700Z,4.99
2019-03-17T06:04:07.810Z,5.07
2019-03-17T06:06:38.753Z,5.43
2019-03-17T06:09:09.793Z,5.62
2019-03-17T06:11:40.937Z,5.64
2019-03-17T06:14:11.924Z,5.74
2019-03-17T06:16:42.937Z,5.95
2019-03-17T06:19:14.084Z,6.53
2019-03-17T06:21:45.284Z,6.72
2019-03-17T06:24:16.758Z,6.96
2019-03-17T06:26:48.994Z,6.23
2019-03-17T06:29:20.059Z,6.33
2019-03-17T06:31:51.118Z,6.24
2019-03-17T06:34:24.355Z,5.96
2019-03-17T06:36:55.006Z,5.72
2019-03-17T06:39:26.082Z,5.90
2019-03-17T06:41:57.136Z,5.94
2019-03-17T06:44:28.270Z,6.40
2019-03-17T06:46:59.708Z,6.01
2019-03-17T06:49:30.761Z,6.32
2019-03-17T06:52:01.838Z,6.45
2019-03-17T06:54:32.841Z,6.58
2019-03-17T06:57:03.982Z,6.29
2019-03-17T06:59:36.159Z,6.48
2019-03-17T07:02:07.320Z,6.48
2019-03-17T07:04:38.286Z,6.42
2019-03-17T07:07:09.455Z,6.20
2019-03-17T07:09:40.541Z,6.28
2019-03-17T07:12:11.657Z,6.48
2019-03-17T07:14:42.652Z,6.49
2019-03-17T07:17:13.805Z,6.13
2019-03-17T07:19:44.941Z,6.26
2019-03-17T07:22:16.032Z,6.13
2019-03-17T07:24:47.032Z,6.48
2019-03-17T07:27:18.128Z,6.44
2019-03-17T07:29:49.619Z,6.68
2019-03-17T07:32:20.863Z,6.49
2019-03-17T07:34:52.027Z,6.56
2019-03-17T07:37:23.083Z,6.74
2019-03-17T07:39:54.124Z,6.88
2019-03-17T07:42:25.236Z,6.59
2019-03-17T07:44:56.194Z,6.84
2019-03-17T07:47:28.283Z,6.47
2019-03-17T07:49:59.452Z,7.41
2019-03-17T07:52:30.434Z,8.11
2019-03-17T07:55:01.399Z,8.03
2019-03-17T07:57:32.421Z,7.87
2019-03-17T08:00:08.399Z,7.87
2019-03-17T08:02:39.372Z,8.12
2019-03-17T08:05:10.841Z,7.43
2019-03-17T08:07:41.717Z,7.49
2019-03-17T08:10:16.524Z,6.75
2019-03-17T08:12:47.800Z,6.71
2019-03-17T08:15:20.824Z,6.82
2019-03-17T08:17:52.887Z,6.59
2019-03-17T08:20:24.112Z,6.51
2019-03-17T08:22:55.603Z,6.85
2019-03-17T08:25:27.733Z,7.00
2019-03-17T08:27:58.790Z,6.80
2019-03-17T08:30:29.748Z,6.68
2019-03-17T08:33:00.900Z,6.99
2019-03-17T08:35:32.123Z,6.60
2019-03-17T08:38:03.165Z,6.73
2019-03-17T08:40:34.308Z,6.55
2019-03-17T08:43:05.219Z,6.43
2019-03-17T08:45:36.907Z,6.61
2019-03-17T08:48:08.399Z,6.39
2019-03-17T08:50:40.578Z,6.53
2019-03-17T08:53:11.665Z,6.69
2019-03-17T08:55:42.857Z,6.76
2019-03-17T08:58:15.373Z,6.59
2019-03-17T09:00:46.554Z,6.59
2019-03-17T09:03:17.629Z,6.50
2019-03-17T09:05:48.689Z,6.49
2019-03-17T09:08:19.726Z,6.33
2019-03-17T09:10:50.701Z,6.46
2019-03-17T09:13:21.820Z,6.79
2019-03-17T09:15:52.875Z,6.85
2019-03-17T09:18:26.829Z,6.85
2019-03-17T09:20:57.176Z,7.17
2019-03-17T09:23:29.180Z,7.15
2019-03-17T09:26:00.334Z,7.39
2019-03-17T09:28:31.501Z,7.35
2019-03-17T09:31:07.058Z,7.35
2019-03-17T09:33:35.466Z,7.43
2019-03-17T09:36:06.598Z,6.87
2019-03-17T09:38:46.835Z,6.87
2019-03-17T09:41:10.999Z,6.86
2019-03-17T09:43:42.199Z,7.03
2019-03-17T09:46:13.269Z,6.81
2019-03-17T09:48:44.647Z,7.29
2019-03-17T09:51:15.873Z,6.91
2019-03-17T09:53:47.212Z,6.91
2019-03-17T09:56:18.467Z,7.35
2019-03-17T09:58:49.942Z,7.17
2019-03-17T10:01:22.267Z,7.04
2019-03-17T10:03:53.314Z,7.59
2019-03-17T10:06:24.487Z,7.59
2019-03-17T10:09:00.229Z,7.50
2019-03-17T10:11:28.493Z,7.24
2019-03-17T10:13:59.592Z,7.28
2019-03-17T10:16:30.688Z,7.28
2019-03-17T10:19:01.788Z,7.09
2019-03-17T10:21:32.928Z,7.07
2019-03-17T10:24:04.510Z,7.08
2019-03-17T10:26:35.783Z,7.07
2019-03-17T10:29:07.021Z,7.27
2019-03-17T10:31:38.402Z,7.36
2019-03-17T10:34:09.722Z,7.36
2019-03-17T10:36:42.628Z,7.68
2019-03-17T10:39:13.815Z,7.68
2019-03-17T10:41:45.049Z,7.75
2019-03-17T10:44:16.361Z,7.82
2019-03-17T10:46:47.483Z,7.71
2019-03-17T10:49:18.524Z,7.64
2019-03-17T10:51:49.818Z,7.52
2019-03-17T10:54:20.880Z,7.39
2019-03-17T10:56:53.204Z,7.22
2019-03-17T10:59:24.262Z,7.43
2019-03-17T11:01:55.537Z,7.60
2019-03-17T11:04:26.898Z,7.69
2019-03-17T11:06:58.413Z,7.69
2019-03-17T11:09:29.375Z,7.64
2019-03-17T11:12:00.674Z,7.63
2019-03-17T11:14:31.578Z,7.71
2019-03-17T11:17:02.654Z,7.71
2019-03-17T11:19:33.615Z,7.69
2019-03-17T11:22:04.682Z,7.75
2019-03-17T11:24:36.141Z,8.15
2019-03-17T11:27:08.703Z,7.96
2019-03-17T11:29:39.725Z,8.07
2019-03-17T11:32:10.733Z,7.96
2019-03-17T11:34:41.855Z,8.21
2019-03-17T11:37:13.464Z,8.39
2019-03-17T11:39:45.044Z,8.23
2019-03-17T11:42:16.437Z,7.95
2019-03-17T11:44:47.679Z,7.95
2019-03-17T11:47:19.640Z,8.22
2019-03-17T11:49:50.743Z,7.87
2019-03-17T11:52:21.768Z,7.48
2019-03-17T11:54:53.107Z,6.75
2019-03-17T11:57:24.105Z,6.08
2019-03-17T11:59:55.117Z,6.01
2019-03-17T12:02:27.059Z,5.93
2019-03-17T12:04:59.531Z,5.95
2019-03-17T12:07:31.667Z,6.17
2019-03-17T12:10:02.721Z,6.27
2019-03-17T12:12:34.078Z,6.49
2019-03-17T12:15:08.413Z,6.57
2019-03-17T12:17:39.933Z,6.56
2019-03-17T12:20:13.978Z,6.50
2019-03-17T12:22:44.859Z,6.41
2019-03-17T12:25:17.131Z,6.39
2019-03-17T12:27:48.454Z,6.52
2019-03-17T12:30:26.408Z,6.46
2019-03-17T12:32:57.444Z,6.46
2019-03-17T12:35:28.390Z,6.56
2019-03-17T12:37:59.329Z,6.76
2019-03-17T12:40:30.414Z,6.76
2019-03-17T12:43:01.361Z,7.00
2019-03-17T12:45:32.296Z,6.93
2019-03-17T12:48:03.431Z,7.06
2019-03-17T12:50:34.961Z,7.25
2019-03-17T12:53:07.964Z,7.24
2019-03-17T12:55:39.452Z,7.27
2019-03-17T12:58:10.597Z,7.11
2019-03-17T13:00:41.742Z,7.04
2019-03-17T13:03:12.638Z,7.13
2019-03-17T13:05:43.703Z,7.03
2019-03-17T13:08:16.101Z,7.03
2019-03-17T13:10:48.280Z,6.99
2019-03-17T13:13:19.244Z,6.91
2019-03-17T13:15:50.252Z,6.91
2019-03-17T13:18:21.253Z,6.91
2019-03-17T13:20:52.319Z,6.77
2019-03-17T13:23:23.429Z,6.77
2019-03-17T13:25:56.031Z,6.81
2019-03-17T13:28:28.556Z,6.80
2019-03-17T13:30:59.661Z,6.72
2019-03-17T13:33:30.892Z,6.71
2019-03-17T13:36:02.346Z,6.71
2019-03-17T13:38:33.472Z,6.71
2019-03-17T13:41:04.362Z,6.70
2019-03-17T13:43:35.398Z,6.85
2019-03-17T13:46:06.360Z,6.92
2019-03-17T13:48:37.342Z,6.95
2019-03-17T13:51:08.316Z,7.01
2019-03-17T13:53:39.327Z,6.95
2019-03-17T13:56:10.403Z,7.02
2019-03-17T13:58:41.350Z,6.97
2019-03-17T14:01:12.409Z,6.97
2019-03-17T14:03:44.214Z,6.98
2019-03-17T14:06:15.424Z,6.98
2019-03-17T14:08:46.785Z,6.94
2019-03-17T14:11:17.929Z,6.92
2019-03-17T14:13:49.120Z,7.11
2019-03-17T14:16:20.265Z,6.91
2019-03-17T14:18:51.320Z,7.07
2019-03-17T14:21:24.530Z,6.84
2019-03-17T14:23:55.499Z,6.84
2019-03-17T14:26:26.574Z,6.99
2019-03-17T14:28:57.759Z,7.10
2019-03-17T14:31:28.883Z,7.13
2019-03-17T14:34:01.437Z,7.04
2019-03-17T14:36:32.352Z,7.02
2019-03-17T14:39:03.725Z,6.98
2019-03-17T14:41:34.737Z,7.14
2019-03-17T14:44:05.833Z,7.01
2019-03-17T14:46:36.920Z,6.84
2019-03-17T14:49:07.985Z,6.99
2019-03-17T14:51:38.894Z,7.05
2019-03-17T14:54:09.947Z,6.77
2019-03-17T14:56:40.983Z,6.82
2019-03-17T14:59:12.545Z,6.82
2019-03-17T15:01:43.636Z,6.88
2019-03-17T15:04:14.558Z,6.89
2019-03-17T15:06:45.617Z,6.94
2019-03-17T15:09:16.553Z,6.86
2019-03-17T15:11:47.532Z,6.89
2019-03-17T15:14:18.599Z,6.77
2019-03-17T15:16:49.785Z,6.86
2019-03-17T15:19:20.783Z,6.65
2019-03-17T15:21:51.854Z,6.65
2019-03-17T15:24:22.724Z,6.79
2019-03-17T15:26:53.923Z,6.66
2019-03-17T15:29:24.986Z,6.66
2019-03-17T15:31:55.965Z,6.72
2019-03-17T15:34:26.975Z,6.72
2019-03-17T15:36:58.060Z,6.59
2019-03-17T15:39:30.330Z,6.64
2019-03-17T15:42:02.853Z,6.59
2019-03-17T15:44:33.974Z,6.62
2019-03-17T15:47:05.003Z,6.53
2019-03-17T15:49:35.979Z,6.50
2019-03-17T15:52:06.923Z,6.45
2019-03-17T15:54:37.901Z,6.45
2019-03-17T15:57:08.775Z,6.49
2019-03-17T15:59:39.888Z,6.33
2019-03-17T16:02:10.850Z,6.33
2019-03-17T16:04:41.934Z,6.29
2019-03-17T16:07:13.062Z,6.26
2019-03-17T16:09:44.163Z,6.26
2019-03-17T16:12:15.268Z,6.27
2019-03-17T16:14:47.541Z,6.30
2019-03-17T16:17:18.585Z,6.34
2019-03-17T16:19:49.777Z,6.36
2019-03-17T16:22:20.883Z,6.40
2019-03-17T16:24:52.139Z,6.46
2019-03-17T16:27:23.290Z,6.53
2019-03-17T16:29:54.984Z,6.50
2019-03-17T16:32:25.983Z,6.59
2019-03-17T16:34:57.170Z,6.47
2019-03-17T16:37:28.245Z,6.50
2019-03-17T16:39:59.300Z,6.63
2019-03-17T16:42:30.379Z,6.63
2019-03-17T16:45:01.648Z,6.65
2019-03-17T16:47:32.900Z,6.60
2019-03-17T16:50:07.032Z,6.54
2019-03-17T16:52:39.613Z,6.51
2019-03-17T16:55:11.641Z,6.59
2019-03-17T16:57:42.993Z,6.59
2019-03-17T17:00:26.543Z,6.54
2019-03-17T17:02:57.675Z,6.56
2019-03-17T17:05:28.857Z,6.50
2019-03-17T17:07:59.945Z,6.34
2019-03-17T17:10:31.643Z,6.33
2019-03-17T17:13:03.191Z,6.28
2019-03-17T17:15:35.626Z,6.25
2019-03-17T17:18:06.690Z,6.33
2019-03-17T17:20:39.851Z,6.18
2019-03-17T17:23:10.951Z,6.30
2019-03-17T17:25:42.057Z,6.25
2019-03-17T17:28:13.143Z,6.16
2019-03-17T17:30:44.353Z,6.17
2019-03-17T17:33:15.440Z,6.24
2019-03-17T17:35:46.438Z,6.08
2019-03-17T17:38:17.573Z,6.08
2019-03-17T17:40:49.678Z,5.94
2019-03-17T17:43:20.856Z,5.92
2019-03-17T17:45:52.216Z,5.92
2019-03-17T17:48:23.267Z,5.98
2019-03-17T17:50:54.514Z,5.89
2019-03-17T17:53:25.600Z,5.83
2019-03-17T17:55:56.743Z,5.77
2019-03-17T17:58:27.918Z,5.70
2019-03-17T18:00:59.045Z,5.73
2019-03-17T18:03:30.164Z,5.62
2019-03-17T18:06:01.332Z,5.75
2019-03-17T18:08:32.418Z,5.60
2019-03-17T18:11:04.468Z,5.47
2019-03-17T18:13:35.681Z,5.34
2019-03-17T18:16:08.721Z,5.34
2019-03-17T18:18:39.904Z,5.28
2019-03-17T18:21:11.053Z,5.10
2019-03-17T18:23:42.161Z,5.04
2019-03-17T18:26:13.269Z,5.22
2019-03-17T18:28:44.474Z,5.97
2019-03-17T18:31:15.624Z,5.26
2019-03-17T18:33:46.835Z,5.26
2019-03-17T18:36:17.974Z,4.99
2019-03-17T18:38:51.184Z,4.98
2019-03-17T18:41:22.555Z,4.78
2019-03-17T18:43:53.608Z,4.67
2019-03-17T18:46:25.642Z,4.62
2019-03-17T18:48:56.818Z,4.66
2019-03-17T18:51:27.944Z,4.59
2019-03-17T18:53:59.098Z,4.56
2019-03-17T18:56:30.274Z,4.56
2019-03-17T18:59:01.374Z,4.48
2019-03-17T19:01:32.679Z,4.48
2019-03-17T19:04:03.840Z,4.59
2019-03-17T19:06:34.925Z,4.49
2019-03-17T19:09:06.787Z,4.47
2019-03-17T19:11:37.934Z,4.45
2019-03-17T19:14:08.975Z,4.50
2019-03-17T19:16:39.957Z,4.47
2019-03-17T19:19:11.313Z,4.40
2019-03-17T19:21:42.299Z,4.42
2019-03-17T19:24:13.334Z,4.42
2019-03-17T19:26:44.568Z,4.41
2019-03-17T19:29:15.790Z,4.44
2019-03-17T19:31:47.037Z,4.51
2019-03-17T19:34:18.024Z,4.42
2019-03-17T19:36:49.180Z,4.48
2019-03-17T19:39:20.194Z,4.45
2019-03-17T19:41:51.247Z,4.42
2019-03-17T19:44:22.385Z,4.39
2019-03-17T19:46:54.637Z,4.35
2019-03-17T19:49:25.700Z,4.36
2019-03-17T19:51:56.711Z,4.39
2019-03-17T19:54:28.784Z,4.41
2019-03-17T19:56:59.987Z,4.44
2019-03-17T19:59:31.179Z,4.46
2019-03-17T20:02:02.383Z,4.51
2019-03-17T20:04:35.559Z,4.55
2019-03-17T20:07:06.454Z,4.44
2019-03-17T20:09:37.421Z,4.42
2019-03-17T20:12:08.488Z,4.44
2019-03-17T20:14:41.975Z,4.42
2019-03-17T20:17:13.991Z,4.40
2019-03-17T20:19:45.161Z,4.37
2019-03-17T20:22:16.262Z,4.38
2019-03-17T20:24:47.325Z,4.39
2019-03-17T20:27:18.526Z,4.31
2019-03-17T20:29:49.669Z,4.30
2019-03-17T20:32:20.892Z,4.28
2019-03-17T20:34:51.971Z,4.27
2019-03-17T20:37:23.100Z,4.26
2019-03-17T20:39:55.362Z,4.27
2019-03-17T20:42:26.529Z,4.25
2019-03-17T20:44:57.612Z,4.21
2019-03-17T20:47:28.700Z,4.24
2019-03-17T20:49:59.714Z,4.24
2019-03-17T20:52:30.862Z,4.25
2019-03-17T20:55:01.845Z,4.23
2019-03-17T20:57:32.924Z,4.22
2019-03-17T21:00:07.307Z,4.27
2019-03-17T21:02:38.363Z,4.20
2019-03-17T21:05:10.981Z,4.21
2019-03-17T21:07:42.035Z,4.24
2019-03-17T21:10:14.302Z,4.21
2019-03-17T21:12:45.376Z,4.13
2019-03-17T21:15:22.492Z,4.09
2019-03-17T21:17:53.550Z,4.04
2019-03-17T21:20:25.604Z,4.01
2019-03-17T21:22:56.830Z,4.08
2019-03-17T21:25:27.868Z,4.06
2019-03-17T21:27:58.914Z,4.05
2019-03-17T21:30:31.530Z,4.08
2019-03-17T21:33:02.646Z,4.05
2019-03-17T21:35:33.926Z,4.04
2019-03-17T21:38:05.063Z,4.03
2019-03-17T21:40:36.052Z,4.03
2019-03-17T21:43:07.146Z,4.04
2019-03-17T21:45:38.195Z,4.07
2019-03-17T21:48:09.304Z,3.95
2019-03-17T21:50:40.400Z,3.90
2019-03-17T21:53:11.583Z,3.78
2019-03-17T21:55:42.662Z,3.68
2019-03-17T21:58:13.685Z,3.64
2019-03-17T22:00:44.741Z,3.52
2019-03-17T22:03:19.139Z,3.42
2019-03-17T22:05:50.420Z,3.39
2019-03-17T22:08:21.589Z,3.40
2019-03-17T22:10:52.699Z,3.02
2019-03-17T22:13:23.860Z,2.94
2019-03-17T22:15:54.901Z,3.17
2019-03-17T22:18:26.101Z,3.30
2019-03-17T22:20:57.172Z,3.11
2019-03-17T22:23:28.154Z,3.16
2019-03-17T22:25:59.256Z,3.13
2019-03-17T22:28:30.339Z,2.92
2019-03-17T22:31:01.446Z,2.77
2019-03-17T22:33:32.555Z,2.71
2019-03-17T22:36:03.841Z,2.70
2019-03-17T22:38:35.092Z,2.60
2019-03-17T22:41:06.285Z,2.47
2019-03-17T22:43:37.403Z,2.49
2019-03-17T22:46:08.505Z,2.83
2019-03-17T22:48:39.541Z,2.89
2019-03-17T22:51:11.601Z,2.68
2019-03-17T22:53:42.647Z,2.81
2019-03-17T22:56:13.634Z,2.82
2019-03-17T22:58:44.747Z,2.81
2019-03-17T23:01:15.788Z,2.80
2019-03-17T23:03:46.997Z,2.81
2019-03-17T23:06:18.322Z,2.78
2019-03-17T23:08:49.701Z,2.89
2019-03-17T23:11:20.714Z,2.82
2019-03-17T23:13:51.811Z,2.85
2019-03-17T23:16:22.957Z,2.91
2019-03-17T23:18:54.092Z,2.49
2019-03-17T23:21:25.156Z,2.44
2019-03-17T23:23:56.567Z,2.59
2019-03-17T23:26:27.743Z,2.63
2019-03-17T23:28:58.884Z,2.48
2019-03-17T23:31:30.026Z,2.51
2019-03-17T23:34:01.321Z,2.42
2019-03-17T23:36:32.424Z,2.50
2019-03-17T23:39:03.752Z,2.60
2019-03-17T23:41:34.892Z,2.67
2019-03-17T23:44:05.956Z,2.65
2019-03-17T23:46:37.100Z,2.66
2019-03-17T23:49:09.262Z,2.76
2019-03-17T23:51:40.338Z,2.64
2019-03-17T23:54:11.564Z,2.60
2019-03-17T23:56:42.706Z,2.65
2019-03-17T23:59:13.681Z,2.57
